Time;durP1;ratioP1;P1;durP2;ratioP2;P2;SDS_P1;SDS_P2;PMS_P1;PMS_P2;Temp;Humidity;BMP_temperature;BMP_pressure;BME280_temperature;BME280_humidity;BME280_pressure;Samples;Min_cycle;Max_cycle;Signal;HPM_P1;HPM_P2
2021/01/01 00:02:09;;;;;;;82.70;50.08;;;5.30;98.00;;;;;;5113524;28;20206;-80
2021/01/01 00:04:41;;;;;;;69.65;51.95;;;5.30;98.30;;;;;;5112660;28;20264;-80
2021/01/01 00:07:24;;;;;;;52.17;42.15;;;5.30;98.20;;;;;;5112783;28;20172;-80
2021/01/01 00:10:05;;;;;;;46.80;37.83;;;5.30;98.00;;;;;;5110379;28;20182;-80
2021/01/01 00:12:52;;;;;;;44.00;36.30;;;5.20;98.10;;;;;;5111096;28;20184;-80
2021/01/01 00:15:20;;;;;;;42.15;32.97;;;5.20;98.30;;;;;;5112145;28;20511;-80
2021/01/01 00:18:01;;;;;;;40.97;32.10;;;5.20;98.10;;;;;;5112472;28;20179;-80
2021/01/01 00:20:30;;;;;;;44.90;35.13;;;5.20;98.10;;;;;;5111556;28;20183;-80
2021/01/01 00:23:01;;;;;;;43.03;34.95;;;5.20;98.40;;;;;;5111494;28;20522;-80
2021/01/01 00:28:20;;;;;;;40.33;32.72;;;5.20;97.90;;;;;;5111667;28;20160;-80
2021/01/01 00:31:01;;;;;;;40.95;33.30;;;5.20;97.60;;;;;;5109840;28;20255;-80
2021/01/01 00:33:29;;;;;;;37.70;31.52;;;5.20;97.50;;;;;;5111769;28;20517;-80
2021/01/01 00:38:46;;;;;;;37.92;30.20;;;5.20;97.70;;;;;;5111403;28;20210;-80
2021/01/01 00:41:40;;;;;;;40.53;33.05;;;5.20;97.70;;;;;;5110168;28;20179;-80
2021/01/01 00:44:16;;;;;;;39.72;33.25;;;5.20;97.40;;;;;;5111239;28;20511;-80
2021/01/01 00:53:13;;;;;;;40.45;30.92;;;5.20;97.30;;;;;;5111104;28;20587;-80
2021/01/01 00:56:15;;;;;;;36.22;30.30;;;5.10;97.30;;;;;;5111394;28;20182;-80
2021/01/01 00:59:01;;;;;;;40.38;30.73;;;5.10;97.60;;;;;;5110889;28;20207;-80
2021/01/01 01:01:37;;;;;;;36.35;29.80;;;5.10;97.80;;;;;;5108664;28;20641;-80
2021/01/01 01:04:33;;;;;;;40.88;31.50;;;5.10;97.20;;;;;;5109836;28;20191;-80
2021/01/01 01:07:07;;;;;;;38.95;31.33;;;5.00;97.60;;;;;;5111262;28;20180;-80
2021/01/01 01:10:03;;;;;;;39.88;33.33;;;5.00;97.70;;;;;;5111871;28;20203;-80
2021/01/01 01:12:41;;;;;;;41.47;34.40;;;5.00;97.90;;;;;;5109181;28;20184;-80
2021/01/01 01:18:02;;;;;;;37.63;30.33;;;5.00;97.70;;;;;;5111423;28;20175;-80
2021/01/01 01:20:34;;;;;;;39.60;30.63;;;4.90;97.80;;;;;;5111247;28;20248;-80
2021/01/01 01:23:00;;;;;;;40.55;30.08;;;4.80;98.00;;;;;;5111354;28;20168;-80
2021/01/01 01:25:44;;;;;;;40.57;31.67;;;4.90;97.90;;;;;;5111090;28;20248;-80
2021/01/01 01:28:28;;;;;;;39.33;29.13;;;4.80;97.90;;;;;;5110119;28;20188;-80
2021/01/01 01:31:15;;;;;;;37.60;30.85;;;4.70;98.30;;;;;;5111144;28;20213;-80
2021/01/01 01:33:56;;;;;;;75.45;50.20;;;4.60;98.10;;;;;;5109558;28;20207;-80
2021/01/01 01:36:40;;;;;;;90.97;64.65;;;4.60;98.30;;;;;;5111394;28;20211;-80
2021/01/01 01:39:05;;;;;;;81.63;62.28;;;4.70;98.00;;;;;;5112023;28;20187;-80
2021/01/01 01:41:49;;;;;;;56.83;47.57;;;4.70;98.00;;;;;;5111060;28;20180;-80
2021/01/01 01:44:20;;;;;;;38.40;30.60;;;4.70;97.70;;;;;;5109802;28;20229;-80
2021/01/01 01:46:50;;;;;;;34.83;27.90;;;4.60;97.60;;;;;;5109881;28;20558;-80
2021/01/01 01:49:34;;;;;;;39.25;30.63;;;4.40;97.50;;;;;;5111078;28;20191;-80
2021/01/01 01:52:08;;;;;;;37.22;29.35;;;4.40;98.10;;;;;;5110931;28;20171;-80
2021/01/01 01:54:40;;;;;;;37.92;27.42;;;4.40;97.30;;;;;;5110401;28;20702;-80
2021/01/01 01:57:15;;;;;;;38.15;30.02;;;4.30;97.30;;;;;;5108890;28;20188;-80
2021/01/01 01:59:58;;;;;;;34.72;29.50;;;4.30;97.70;;;;;;5109434;28;20188;-80
2021/01/01 02:02:42;;;;;;;35.28;28.50;;;4.20;97.50;;;;;;5110336;27;20183;-80
2021/01/01 02:05:16;;;;;;;38.90;29.88;;;4.20;97.40;;;;;;5109740;28;20187;-80
2021/01/01 02:07:51;;;;;;;35.83;28.30;;;4.10;97.70;;;;;;5110450;28;20167;-80
2021/01/01 02:10:44;;;;;;;33.50;27.85;;;4.00;97.60;;;;;;5110626;28;20160;-80
2021/01/01 02:13:19;;;;;;;36.50;27.05;;;3.90;97.70;;;;;;5108937;28;20176;-80
2021/01/01 02:16:03;;;;;;;37.97;27.63;;;3.90;97.20;;;;;;5108807;28;20180;-80
2021/01/01 02:18:51;;;;;;;33.92;26.00;;;3.80;97.40;;;;;;5107793;28;20164;-80
2021/01/01 02:21:20;;;;;;;33.25;27.38;;;3.70;97.50;;;;;;5109902;28;20716;-80
2021/01/01 02:23:55;;;;;;;35.38;27.20;;;3.60;97.60;;;;;;5109247;28;20225;-80
2021/01/01 02:26:41;;;;;;;41.03;30.60;;;3.70;97.70;;;;;;5110368;28;20171;-80
2021/01/01 02:29:13;;;;;;;36.70;28.23;;;3.70;97.70;;;;;;5110074;28;20726;-80
2021/01/01 02:31:53;;;;;;;35.63;28.17;;;3.50;97.90;;;;;;5110265;28;20180;-80
2021/01/01 02:34:31;;;;;;;43.75;34.05;;;3.50;97.70;;;;;;5109104;28;20911;-80
2021/01/01 02:37:08;;;;;;;37.45;30.10;;;3.50;97.70;;;;;;5110453;28;20643;-80
2021/01/01 02:39:37;;;;;;;36.00;28.05;;;3.40;97.70;;;;;;5110171;28;20188;-80
2021/01/01 02:42:08;;;;;;;34.38;26.58;;;3.40;97.80;;;;;;5109676;28;20172;-80
2021/01/01 02:45:05;;;;;;;38.50;29.70;;;3.30;98.00;;;;;;5108151;28;20209;-80
2021/01/01 02:47:36;;;;;;;35.40;27.52;;;3.30;97.80;;;;;;5111052;28;20200;-80
2021/01/01 02:52:55;;;;;;;38.72;30.40;;;3.20;97.90;;;;;;5109252;28;20210;-80
2021/01/01 02:55:27;;;;;;;38.15;28.85;;;3.10;98.00;;;;;;5111774;28;20160;-82
2021/01/01 02:58:11;;;;;;;37.30;28.02;;;3.10;98.10;;;;;;5110112;28;20692;-81
2021/01/01 03:00:56;;;;;;;34.63;28.75;;;3.00;98.10;;;;;;5109610;28;20175;-81
2021/01/01 03:03:24;;;;;;;36.63;28.00;;;2.90;98.30;;;;;;5109209;28;20175;-79
2021/01/01 03:06:30;;;;;;;33.42;27.05;;;2.90;98.40;;;;;;5110650;28;20182;-79
2021/01/01 03:09:08;;;;;;;35.47;28.20;;;2.80;98.50;;;;;;5106495;28;20175;-79
2021/01/01 03:11:46;;;;;;;35.67;28.20;;;2.80;98.40;;;;;;5109669;28;20184;-79
2021/01/01 03:14:33;;;;;;;33.60;25.85;;;2.80;98.30;;;;;;5109053;28;20213;-79
2021/01/01 03:17:04;;;;;;;39.53;30.42;;;2.60;98.50;;;;;;5109521;28;20210;-79
2021/01/01 03:19:35;;;;;;;42.75;33.80;;;2.60;98.70;;;;;;5109010;28;20282;-79
2021/01/01 03:22:19;;;;;;;38.13;28.45;;;2.60;98.30;;;;;;5107777;28;20276;-79
2021/01/01 03:25:15;;;;;;;37.08;28.77;;;2.50;98.80;;;;;;5108474;28;20195;-79
2021/01/01 03:27:59;;;;;;;37.38;28.58;;;2.40;99.00;;;;;;5108446;28;20183;-79
2021/01/01 03:30:43;;;;;;;40.10;29.60;;;2.40;98.80;;;;;;5109262;28;20686;-79
2021/01/01 03:33:20;;;;;;;42.83;32.80;;;2.30;99.00;;;;;;5109700;28;20594;-79
2021/01/01 03:36:08;;;;;;;46.20;32.42;;;2.20;99.00;;;;;;5109785;28;20658;-79
2021/01/01 03:38:39;;;;;;;42.38;30.60;;;2.20;99.50;;;;;;5107996;28;20521;-80
2021/01/01 03:41:26;;;;;;;59.00;29.45;;;2.10;99.80;;;;;;5108191;28;20215;-79
2021/01/01 03:43:57;;;;;;;76.50;33.05;;;2.00;99.90;;;;;;5108098;28;20207;-79
2021/01/01 03:46:29;;;;;;;52.38;30.33;;;1.90;99.90;;;;;;5109317;28;20176;-79
2021/01/01 03:48:57;;;;;;;73.10;32.67;;;1.80;99.90;;;;;;5108924;28;20167;-79
2021/01/01 03:51:31;;;;;;;47.88;28.77;;;1.80;99.90;;;;;;5109183;28;20176;-79
2021/01/01 03:54:03;;;;;;;51.90;31.17;;;1.90;99.90;;;;;;5108724;28;20230;-79
2021/01/01 03:56:32;;;;;;;53.75;31.15;;;1.90;99.90;;;;;;5108392;28;20176;-79
2021/01/01 03:59:12;;;;;;;43.08;28.00;;;1.90;99.90;;;;;;5106480;28;20184;-79
2021/01/01 04:01:41;;;;;;;57.03;35.08;;;1.80;99.90;;;;;;5108772;28;20183;-79
2021/01/01 04:04:27;;;;;;;57.33;37.20;;;1.80;99.90;;;;;;5108394;28;20948;-79
2021/01/01 04:07:07;;;;;;;41.75;28.73;;;1.80;99.90;;;;;;5108782;28;20175;-79
2021/01/01 04:10:07;;;;;;;41.55;28.23;;;1.80;99.90;;;;;;5108670;28;20218;-79
2021/01/01 04:12:32;;;;;;;38.80;25.35;;;1.90;99.90;;;;;;5107466;28;20528;-79
2021/01/01 04:15:01;;;;;;;46.87;29.80;;;1.90;99.90;;;;;;5108256;28;20176;-79
2021/01/01 04:17:29;;;;;;;40.63;28.15;;;1.90;99.90;;;;;;5107439;28;20245;-79
2021/01/01 04:20:01;;;;;;;36.03;26.45;;;1.90;99.90;;;;;;5107579;28;20184;-79
2021/01/01 04:22:35;;;;;;;35.40;24.40;;;1.80;99.90;;;;;;5111376;28;20188;-79
2021/01/01 04:25:14;;;;;;;32.22;23.05;;;1.80;99.90;;;;;;5110939;28;20207;-79
2021/01/01 04:27:57;;;;;;;34.38;24.67;;;1.90;99.90;;;;;;5110940;28;20687;-79
2021/01/01 04:30:35;;;;;;;33.10;23.55;;;1.90;99.90;;;;;;5111160;28;20168;-79
2021/01/01 04:36:07;;;;;;;37.70;25.95;;;1.80;99.90;;;;;;5111827;28;20646;-79
2021/01/01 04:38:50;;;;;;;35.55;25.63;;;1.90;99.90;;;;;;5112126;28;20180;-79
2021/01/01 04:41:35;;;;;;;35.20;24.95;;;1.90;99.90;;;;;;5112250;28;20186;-79
2021/01/01 04:44:13;;;;;;;38.13;26.42;;;1.80;99.90;;;;;;5112157;28;20191;-79
2021/01/01 04:47:10;;;;;;;38.65;28.35;;;1.70;99.90;;;;;;5111056;28;20179;-79
2021/01/01 04:49:45;;;;;;;38.53;28.10;;;1.70;99.90;;;;;;5110407;28;20168;-79
2021/01/01 04:52:33;;;;;;;39.22;26.15;;;1.70;99.90;;;;;;5110328;28;20543;-79
2021/01/01 04:55:08;;;;;;;37.15;27.33;;;1.70;99.90;;;;;;5111019;28;20658;-79
2021/01/01 04:57:55;;;;;;;38.25;26.25;;;1.70;99.90;;;;;;5112478;28;20176;-79
2021/01/01 05:00:33;;;;;;;36.42;25.50;;;1.80;99.90;;;;;;5111328;28;20164;-79
2021/01/01 05:03:19;;;;;;;35.30;26.75;;;1.90;99.90;;;;;;5110578;28;20168;-79
2021/01/01 05:05:57;;;;;;;36.40;26.42;;;1.90;99.90;;;;;;5111519;28;20249;-79
2021/01/01 05:08:44;;;;;;;37.03;26.08;;;1.80;99.90;;;;;;5111415;28;20230;-79
2021/01/01 05:11:31;;;;;;;32.50;25.95;;;1.80;99.90;;;;;;5111300;28;20611;-79
2021/01/01 05:14:27;;;;;;;36.03;26.83;;;1.80;99.90;;;;;;5110312;28;20241;-79
2021/01/01 05:17:14;;;;;;;36.55;26.90;;;1.90;99.90;;;;;;5111095;28;20184;-79
2021/01/01 05:19:48;;;;;;;32.92;24.48;;;1.90;99.90;;;;;;5110670;28;20176;-79
2021/01/01 05:22:50;;;;;;;37.88;26.15;;;1.90;99.90;;;;;;5111582;28;20209;-79
2021/01/01 05:25:34;;;;;;;36.38;27.40;;;1.90;99.90;;;;;;5110410;28;20202;-79
2021/01/01 05:28:11;;;;;;;35.67;26.90;;;1.80;99.90;;;;;;5111623;28;20209;-79
2021/01/01 05:30:55;;;;;;;33.13;27.08;;;1.70;99.90;;;;;;5109449;28;20579;-79
2021/01/01 05:33:24;;;;;;;34.45;25.17;;;1.60;99.90;;;;;;5110228;28;20168;-79
2021/01/01 05:36:05;;;;;;;36.50;24.83;;;1.60;99.90;;;;;;5109652;28;20624;-79
2021/01/01 05:38:39;;;;;;;34.45;25.60;;;1.60;99.90;;;;;;5109825;28;20254;-79
2021/01/01 05:41:13;;;;;;;41.45;27.50;;;1.50;99.90;;;;;;5110865;28;20215;-79
2021/01/01 05:44:06;;;;;;;35.00;27.67;;;1.60;99.90;;;;;;5110318;28;20544;-79
2021/01/01 05:46:56;;;;;;;38.42;26.30;;;1.60;99.90;;;;;;5111421;28;20542;-79
2021/01/01 05:49:37;;;;;;;36.08;27.52;;;1.60;99.90;;;;;;5111358;28;20168;-79
2021/01/01 05:52:30;;;;;;;33.75;27.83;;;1.70;99.90;;;;;;5110238;28;20186;-79
2021/01/01 05:55:00;;;;;;;38.13;28.88;;;1.80;99.90;;;;;;5109926;28;20231;-79
2021/01/01 05:57:39;;;;;;;42.33;30.25;;;1.80;99.90;;;;;;5111736;28;20190;-79
2021/01/01 06:00:17;;;;;;;42.78;27.17;;;1.80;99.90;;;;;;5109252;28;20199;-79
2021/01/01 06:03:02;;;;;;;41.33;29.90;;;1.70;99.90;;;;;;5111735;28;20554;-79
2021/01/01 06:05:37;;;;;;;37.45;26.75;;;1.70;99.90;;;;;;5110866;28;20200;-79
2021/01/01 06:08:09;;;;;;;36.00;24.98;;;1.70;99.90;;;;;;5110145;28;20623;-79
2021/01/01 06:11:15;;;;;;;39.55;27.70;;;1.60;99.90;;;;;;5110625;28;20169;-79
2021/01/01 06:13:58;;;;;;;36.08;25.58;;;1.60;99.90;;;;;;5110342;28;20167;-79
2021/01/01 06:16:29;;;;;;;35.97;23.92;;;1.70;99.90;;;;;;5110907;28;20209;-80
2021/01/01 06:18:59;;;;;;;33.90;25.95;;;1.60;99.90;;;;;;5108800;28;20179;-80
2021/01/01 06:22:06;;;;;;;35.78;27.35;;;1.50;99.90;;;;;;5110832;28;20531;-80
2021/01/01 06:28:15;;;;;;;37.42;28.90;;;1.70;99.90;;;;;;5111894;28;20254;-80
2021/01/01 06:30:52;;;;;;;39.30;27.92;;;1.70;99.90;;;;;;5111711;28;20210;-80
2021/01/01 06:33:24;;;;;;;33.92;26.58;;;1.70;99.90;;;;;;5110597;28;20549;-80
2021/01/01 06:36:08;;;;;;;36.13;25.80;;;1.60;99.90;;;;;;5110801;28;20184;-80
2021/01/01 06:38:43;;;;;;;37.67;28.45;;;1.60;99.90;;;;;;5110129;28;20189;-80
2021/01/01 06:41:54;;;;;;;33.08;26.52;;;1.60;99.90;;;;;;5108976;28;20308;-80
2021/01/01 06:44:44;;;;;;;42.70;31.52;;;1.60;99.90;;;;;;5111969;28;20199;-80
2021/01/01 06:47:33;;;;;;;53.90;34.65;;;1.50;99.90;;;;;;5110689;28;20274;-80
2021/01/01 06:50:31;;;;;;;73.90;46.92;;;1.50;99.90;;;;;;5111958;28;20639;-80
2021/01/01 06:53:24;;;;;;;67.22;45.08;;;1.50;99.90;;;;;;5111378;28;20187;-80
2021/01/01 06:56:13;;;;;;;56.80;38.58;;;1.50;99.90;;;;;;5110396;28;20184;-80
2021/01/01 06:58:44;;;;;;;61.92;48.78;;;1.50;99.90;;;;;;5110828;28;20164;-80
2021/01/01 07:01:23;;;;;;;63.35;47.83;;;1.50;99.90;;;;;;5111767;28;20186;-80
2021/01/01 07:04:03;;;;;;;48.78;35.95;;;1.50;99.90;;;;;;5110508;28;20171;-80
2021/01/01 07:06:34;;;;;;;45.67;32.95;;;1.60;99.90;;;;;;5110484;28;20175;-80
2021/01/01 07:09:12;;;;;;;43.13;32.13;;;1.60;99.90;;;;;;5111170;28;20180;-80
2021/01/01 07:11:53;;;;;;;50.78;35.92;;;1.70;99.90;;;;;;5110028;28;20191;-80
2021/01/01 07:14:35;;;;;;;54.47;38.50;;;1.70;99.90;;;;;;5108209;28;20201;-80
2021/01/01 07:17:02;;;;;;;47.95;38.47;;;1.70;99.90;;;;;;5109435;28;20650;-80
2021/01/01 07:22:37;;;;;;;52.30;37.33;;;1.80;99.90;;;;;;5111113;28;20675;-80
2021/01/01 07:25:38;;;;;;;48.35;34.60;;;1.80;99.90;;;;;;5109315;28;20540;-80
2021/01/01 07:28:16;;;;;;;45.17;34.92;;;1.70;99.90;;;;;;5110362;28;20175;-80
2021/01/01 07:31:06;;;;;;;48.20;36.67;;;1.90;99.90;;;;;;5109951;28;20531;-80
2021/01/01 07:34:00;;;;;;;47.45;38.60;;;1.90;99.90;;;;;;5109773;28;20176;-80
2021/01/01 07:36:35;;;;;;;39.83;34.67;;;2.00;99.90;;;;;;5090598;28;20230;-80
2021/01/01 07:39:06;;;;;;;43.92;34.50;;;2.00;99.90;;;;;;5105273;28;20278;-80
2021/01/01 07:41:35;;;;;;;45.90;34.10;;;2.20;99.90;;;;;;5110805;28;20518;-80
2021/01/01 07:44:10;;;;;;;33.05;28.25;;;2.30;99.90;;;;;;5109772;28;20203;-80
2021/01/01 07:46:56;;;;;;;38.53;28.80;;;2.50;99.90;;;;;;5109616;28;20525;-80
2021/01/01 07:50:01;;;;;;;32.47;24.45;;;2.70;99.90;;;;;;5109543;28;20156;-80
2021/01/01 07:52:51;;;;;;;32.10;25.88;;;3.00;99.00;;;;;;5109518;28;20563;-80
2021/01/01 07:55:32;;;;;;;32.28;27.17;;;3.20;98.20;;;;;;5109594;28;20195;-80
2021/01/01 07:58:16;;;;;;;30.25;26.15;;;3.50;98.00;;;;;;5112897;28;20636;-81
2021/01/01 08:00:49;;;;;;;30.27;24.88;;;3.80;97.00;;;;;;5111773;28;20203;-80
2021/01/01 08:03:52;;;;;;;29.40;26.35;;;3.90;97.30;;;;;;5112327;28;20210;-80
2021/01/01 08:06:30;;;;;;;28.42;25.13;;;4.20;95.40;;;;;;5113910;28;20179;-80
2021/01/01 08:09:11;;;;;;;28.05;22.83;;;4.60;95.50;;;;;;5113388;28;20159;-80
2021/01/01 08:11:39;;;;;;;27.40;22.30;;;4.50;94.50;;;;;;5114089;28;20564;-80
2021/01/01 08:14:20;;;;;;;32.88;28.23;;;5.00;94.70;;;;;;5114213;28;20674;-80
2021/01/01 08:17:16;;;;;;;30.88;26.33;;;5.40;92.80;;;;;;5111520;28;20716;-81
2021/01/01 08:19:47;;;;;;;34.33;30.63;;;4.60;93.70;;;;;;5112764;28;20164;-80
2021/01/01 08:22:49;;;;;;;43.30;35.05;;;4.80;95.10;;;;;;5113353;28;20597;-80
2021/01/01 08:25:46;;;;;;;39.20;33.67;;;4.70;94.70;;;;;;5112022;28;20214;-80
2021/01/01 08:28:20;;;;;;;43.35;36.67;;;4.50;95.60;;;;;;5111399;28;20962;-80
2021/01/01 08:31:06;;;;;;;32.75;29.38;;;4.80;95.00;;;;;;5113468;28;20171;-80
2021/01/01 08:34:00;;;;;;;45.47;33.75;;;4.20;95.60;;;;;;5113787;28;20164;-80
2021/01/01 08:36:45;;;;;;;26.45;21.55;;;4.50;96.50;;;;;;5088864;28;20656;-80
2021/01/01 08:39:21;;;;;;;29.17;24.20;;;4.30;96.20;;;;;;5108581;28;20168;-80
2021/01/01 08:44:35;;;;;;;29.90;25.60;;;4.60;96.30;;;;;;5113514;28;20222;-80
2021/01/01 08:47:18;;;;;;;30.63;25.02;;;5.40;94.90;;;;;;5111801;28;20184;-80
2021/01/01 08:49:56;;;;;;;53.80;43.13;;;4.90;95.90;;;;;;5113469;28;20203;-80
2021/01/01 08:52:38;;;;;;;33.00;29.48;;;5.40;95.80;;;;;;5111992;28;20179;-79
2021/01/01 08:55:13;;;;;;;36.90;29.58;;;5.60;94.40;;;;;;5112600;28;20227;-80
2021/01/01 08:57:38;;;;;;;34.67;27.75;;;5.50;95.00;;;;;;5112692;28;20183;-81
2021/01/01 09:00:22;;;;;;;34.57;30.87;;;5.40;94.70;;;;;;5112638;27;20183;-81
2021/01/01 09:03:01;;;;;;;31.42;27.60;;;5.20;95.40;;;;;;5113637;28;20168;-80
2021/01/01 09:08:24;;;;;;;41.25;33.13;;;5.90;93.90;;;;;;5111232;28;20159;-80
2021/01/01 09:11:19;;;;;;;41.38;32.78;;;6.10;93.50;;;;;;5112715;28;20187;-80
2021/01/01 09:14:09;;;;;;;30.00;25.80;;;6.20;93.50;;;;;;5112573;28;20168;-80
2021/01/01 09:16:41;;;;;;;25.08;22.02;;;6.10;93.20;;;;;;5112532;28;20210;-80
2021/01/01 09:19:10;;;;;;;31.25;26.02;;;6.30;92.90;;;;;;5111394;28;20519;-81
2021/01/01 09:21:44;;;;;;;29.88;26.67;;;6.20;93.20;;;;;;5111626;28;20685;-80
2021/01/01 09:24:59;;;;;;;27.55;23.60;;;6.40;93.00;;;;;;5110090;28;20304;-80
2021/01/01 09:27:32;;;;;;;25.80;23.10;;;6.00;93.20;;;;;;5111376;28;20227;-80
2021/01/01 09:30:39;;;;;;;28.70;23.45;;;5.60;94.20;;;;;;5112647;28;20167;-80
2021/01/01 09:33:25;;;;;;;34.75;28.20;;;5.20;95.40;;;;;;5111159;28;20179;-80
2021/01/01 09:36:05;;;;;;;41.22;32.80;;;5.40;95.60;;;;;;5110516;28;20184;-80
2021/01/01 09:38:34;;;;;;;44.75;34.80;;;5.70;95.10;;;;;;5111674;28;20180;-80
2021/01/01 09:41:37;;;;;;;37.20;29.60;;;5.50;95.90;;;;;;5109915;28;20311;-79
2021/01/01 09:47:18;;;;;;;37.67;29.75;;;5.70;95.00;;;;;;5111633;28;20678;-79
2021/01/01 09:49:56;;;;;;;32.60;27.95;;;5.80;95.90;;;;;;5111048;28;20601;-80
2021/01/01 09:52:27;;;;;;;34.78;31.10;;;5.60;96.40;;;;;;5110264;28;20188;-79
2021/01/01 09:55:02;;;;;;;39.25;32.90;;;5.60;95.50;;;;;;5112196;28;20258;-80
2021/01/01 09:57:30;;;;;;;32.83;28.80;;;5.90;95.40;;;;;;5110153;28;20284;-80
2021/01/01 10:00:06;;;;;;;30.50;27.30;;;6.00;94.70;;;;;;5112154;28;20537;-80
2021/01/01 10:02:34;;;;;;;31.00;25.02;;;5.90;94.00;;;;;;5109464;28;20183;-79
2021/01/01 10:05:16;;;;;;;28.10;24.70;;;5.70;95.30;;;;;;5111100;28;20191;-79
2021/01/01 10:07:59;;;;;;;35.10;27.73;;;5.70;95.20;;;;;;5111737;28;20184;-80
2021/01/01 10:10:40;;;;;;;31.02;22.75;;;5.70;96.10;;;;;;5111191;28;20164;-80
2021/01/01 10:13:21;;;;;;;31.08;26.30;;;5.40;96.80;;;;;;5110543;28;20156;-80
2021/01/01 10:15:52;;;;;;;32.67;25.05;;;5.40;96.50;;;;;;5110666;28;20183;-80
2021/01/01 10:18:26;;;;;;;34.45;30.33;;;5.60;97.10;;;;;;5111204;28;20262;-79
2021/01/01 10:21:13;;;;;;;39.55;31.52;;;5.70;95.70;;;;;;5111522;28;20184;-79
2021/01/01 10:24:09;;;;;;;36.42;29.33;;;5.90;96.30;;;;;;5111481;28;20266;-79
2021/01/01 10:26:52;;;;;;;38.72;30.67;;;5.70;96.30;;;;;;5109547;28;20194;-80
2021/01/01 10:29:21;;;;;;;65.40;45.03;;;5.70;96.60;;;;;;5109898;28;20158;-80
2021/01/01 10:32:04;;;;;;;48.30;36.70;;;5.80;96.10;;;;;;5111219;28;20180;-80
2021/01/01 10:34:45;;;;;;;45.47;33.47;;;5.90;95.70;;;;;;5109739;28;20172;-79
2021/01/01 10:37:14;;;;;;;42.30;31.65;;;6.10;95.70;;;;;;5111164;28;20227;-79
2021/01/01 10:42:57;;;;;;;39.15;30.17;;;6.10;95.40;;;;;;5091367;28;20187;-80
2021/01/01 10:45:26;;;;;;;31.42;22.55;;;6.40;95.20;;;;;;5088146;28;20208;-80
2021/01/01 10:47:57;;;;;;;35.08;26.20;;;5.90;96.70;;;;;;5089515;28;20195;-79
2021/01/01 10:50:38;;;;;;;32.03;25.88;;;5.90;97.10;;;;;;5090569;28;20180;-80
2021/01/01 10:53:15;;;;;;;31.35;24.25;;;5.90;96.40;;;;;;5090702;28;20156;-79
2021/01/01 10:56:02;;;;;;;31.30;23.65;;;5.80;96.70;;;;;;5088735;28;20180;-79
2021/01/01 10:58:28;;;;;;;27.13;22.38;;;6.00;95.90;;;;;;5090588;28;20203;-79
2021/01/01 11:00:56;;;;;;;33.70;23.87;;;6.00;96.10;;;;;;5089791;28;20632;-79
2021/01/01 11:03:28;;;;;;;27.73;23.80;;;6.20;95.70;;;;;;5089951;28;20267;-79
2021/01/01 11:05:53;;;;;;;28.60;21.13;;;6.30;95.20;;;;;;5088014;28;20223;-79
2021/01/01 11:08:34;;;;;;;24.30;20.10;;;6.30;95.50;;;;;;5090418;28;20584;-80
2021/01/01 11:11:05;;;;;;;25.83;22.00;;;6.30;95.60;;;;;;5089046;28;20180;-79
2021/01/01 11:14:02;;;;;;;28.50;24.40;;;6.20;95.50;;;;;;5088415;28;20246;-79
2021/01/01 12:25:55;;;;;;;31.75;24.02;;;8.60;92.10;;;;;;5109802;28;20188;-80
2021/01/01 12:28:43;;;;;;;37.67;25.33;;;8.80;92.30;;;;;;5108059;28;20172;-80
2021/01/01 12:31:25;;;;;;;24.95;21.73;;;9.00;92.30;;;;;;5108066;28;20242;-80
2021/01/01 12:33:57;;;;;;;30.65;22.27;;;9.10;90.70;;;;;;5108174;28;20203;-80
2021/01/01 12:36:25;;;;;;;31.42;26.23;;;8.90;91.50;;;;;;5109607;28;20192;-80
2021/01/01 12:39:02;;;;;;;33.78;26.20;;;8.90;90.70;;;;;;5108997;28;20259;-79
2021/01/01 12:42:04;;;;;;;26.77;22.73;;;8.80;90.70;;;;;;5108469;28;20270;-79
2021/01/01 12:44:41;;;;;;;32.63;27.80;;;8.90;90.80;;;;;;5112597;28;20213;-79
2021/01/01 12:47:43;;;;;;;33.88;26.65;;;8.70;90.80;;;;;;5112097;28;20183;-79
2021/01/01 12:50:15;;;;;;;30.30;24.48;;;8.80;91.00;;;;;;5111514;28;20175;-80
2021/01/01 12:53:07;;;;;;;37.67;28.98;;;8.90;91.50;;;;;;5113924;28;20176;-79
2021/01/01 12:55:36;;;;;;;35.20;26.80;;;8.70;91.40;;;;;;5111998;28;20183;-79
2021/01/01 12:58:03;;;;;;;35.30;28.63;;;8.50;92.00;;;;;;5111649;27;20218;-80
2021/01/01 13:00:41;;;;;;;33.53;29.00;;;8.40;92.00;;;;;;5112346;28;20267;-79
2021/01/01 13:03:25;;;;;;;41.70;32.03;;;8.40;92.50;;;;;;5112580;28;20164;-79
2021/01/01 13:06:12;;;;;;;38.08;30.95;;;8.40;92.60;;;;;;5112192;28;21087;-79
2021/01/01 13:08:44;;;;;;;37.35;33.10;;;8.30;92.90;;;;;;5111985;28;20636;-80
2021/01/01 13:11:18;;;;;;;39.28;31.55;;;8.20;93.30;;;;;;5112645;28;20638;-80
2021/01/01 13:14:07;;;;;;;42.90;29.77;;;8.20;93.30;;;;;;5109776;28;20185;-80
2021/01/01 13:16:57;;;;;;;47.35;34.28;;;8.10;94.00;;;;;;5111358;28;20168;-80
2021/01/01 13:19:41;;;;;;;45.60;32.85;;;8.00;94.30;;;;;;5110539;28;20550;-80
2021/01/01 13:22:09;;;;;;;39.08;29.70;;;8.10;93.90;;;;;;5112941;28;20205;-79
2021/01/01 13:24:47;;;;;;;44.38;35.75;;;8.10;93.50;;;;;;5112589;28;20573;-79
2021/01/01 13:27:28;;;;;;;40.33;32.00;;;8.10;93.60;;;;;;5112943;28;20180;-80
2021/01/01 13:30:05;;;;;;;39.95;33.47;;;8.00;94.00;;;;;;5112249;28;20206;-80
2021/01/01 13:32:36;;;;;;;42.25;33.97;;;7.90;94.40;;;;;;5111897;28;20179;-80
2021/01/01 13:35:12;;;;;;;43.20;36.78;;;7.90;94.20;;;;;;5112137;28;20539;-79
2021/01/01 13:38:08;;;;;;;45.42;37.13;;;7.80;94.70;;;;;;5111993;28;20647;-79
2021/01/01 13:40:37;;;;;;;44.60;36.95;;;7.70;95.10;;;;;;5112157;28;20636;-80
2021/01/01 13:43:05;;;;;;;43.35;34.13;;;7.80;95.00;;;;;;5110910;28;20184;-79
2021/01/01 13:45:48;;;;;;;43.00;33.92;;;7.80;95.00;;;;;;5111013;28;20208;-80
2021/01/01 13:48:26;;;;;;;40.42;34.47;;;7.80;95.00;;;;;;5111681;28;20160;-79
2021/01/01 13:51:04;;;;;;;44.85;34.67;;;7.70;95.50;;;;;;5111731;28;20606;-80
2021/01/01 13:53:30;;;;;;;43.95;36.83;;;7.70;95.40;;;;;;5111006;28;20219;-80
2021/01/01 13:55:55;;;;;;;46.70;36.50;;;7.80;95.30;;;;;;5111747;28;20701;-79
2021/01/01 13:58:27;;;;;;;47.93;34.10;;;7.80;95.10;;;;;;5111110;28;20221;-80
2021/01/01 14:01:02;;;;;;;42.08;34.83;;;7.80;95.50;;;;;;5107000;28;20187;-79
2021/01/01 14:03:33;;;;;;;42.75;32.58;;;7.80;95.00;;;;;;5110656;28;20254;-79
2021/01/01 14:06:02;;;;;;;40.65;33.88;;;8.20;94.70;;;;;;5110866;28;20207;-79
2021/01/01 14:08:46;;;;;;;43.25;32.22;;;8.30;94.00;;;;;;5111030;28;20168;-80
2021/01/01 14:11:17;;;;;;;43.28;34.08;;;8.40;93.70;;;;;;5111542;28;20179;-80
2021/01/01 14:13:42;;;;;;;42.30;31.63;;;8.40;93.60;;;;;;5110533;27;20175;-80
2021/01/01 14:16:29;;;;;;;41.07;30.93;;;8.20;94.00;;;;;;5111546;28;20524;-79
2021/01/01 14:19:07;;;;;;;44.53;33.90;;;8.20;93.60;;;;;;5109994;28;20247;-80
2021/01/01 14:21:45;;;;;;;48.17;35.13;;;8.20;94.20;;;;;;5109815;28;20191;-80
2021/01/01 14:24:14;;;;;;;43.53;33.72;;;8.20;94.00;;;;;;5109377;28;20217;-80
2021/01/01 14:29:40;;;;;;;43.03;34.30;;;8.20;94.10;;;;;;5110927;28;20650;-79
2021/01/01 14:32:08;;;;;;;46.70;31.65;;;8.10;94.20;;;;;;5109734;28;20267;-80
2021/01/01 14:34:43;;;;;;;43.83;35.55;;;8.10;94.50;;;;;;5108916;28;20632;-79
2021/01/01 14:37:08;;;;;;;51.97;46.42;;;8.00;94.90;;;;;;5110082;28;20187;-80
2021/01/01 14:39:58;;;;;;;58.90;52.83;;;8.10;94.70;;;;;;5109549;28;20183;-80
2021/01/01 14:42:30;;;;;;;52.80;46.03;;;8.10;94.90;;;;;;5110913;28;20187;-80
2021/01/01 14:44:59;;;;;;;41.85;32.03;;;7.90;95.40;;;;;;5109698;28;20686;-80
2021/01/01 14:47:31;;;;;;;44.28;35.53;;;7.80;95.90;;;;;;5110176;27;20224;-80
2021/01/01 14:50:06;;;;;;;42.42;34.22;;;7.80;95.90;;;;;;5108683;28;20156;-80
2021/01/01 14:52:32;;;;;;;50.45;38.17;;;7.80;96.00;;;;;;5109444;28;20236;-80
2021/01/01 14:55:01;;;;;;;42.73;36.10;;;7.80;96.00;;;;;;5109080;28;20230;-80
2021/01/01 14:57:49;;;;;;;45.50;36.47;;;7.80;96.10;;;;;;5110321;28;20194;-80
2021/01/01 15:00:36;;;;;;;46.65;35.60;;;7.80;96.30;;;;;;5110405;28;20160;-80
2021/01/01 15:06:01;;;;;;;45.35;38.40;;;7.80;96.90;;;;;;5108987;28;20823;-80
2021/01/01 15:08:47;;;;;;;47.22;36.03;;;7.80;97.00;;;;;;5108056;28;20258;-80
2021/01/01 15:11:26;;;;;;;48.30;36.45;;;7.70;97.20;;;;;;5107737;28;20190;-80
2021/01/01 15:14:03;;;;;;;44.50;36.58;;;7.60;97.70;;;;;;5108590;28;20191;-80
2021/01/01 15:16:48;;;;;;;46.55;34.13;;;7.60;97.70;;;;;;5108084;28;20186;-80
2021/01/01 15:19:18;;;;;;;41.03;34.67;;;7.70;97.70;;;;;;5109647;28;20662;-80
2021/01/01 15:22:08;;;;;;;49.13;38.97;;;7.70;97.90;;;;;;5109691;28;20535;-80
2021/01/01 15:24:54;;;;;;;49.33;39.15;;;7.80;97.90;;;;;;5109259;28;20736;-80
2021/01/01 15:27:26;;;;;;;40.50;32.13;;;7.80;98.00;;;;;;5108247;28;20265;-80
2021/01/01 15:30:25;;;;;;;41.63;31.25;;;7.80;98.10;;;;;;5108831;28;20186;-80
2021/01/01 15:32:57;;;;;;;43.38;35.25;;;7.80;98.20;;;;;;5109273;28;20651;-80